createdAt,value
2019-02-21T00:01:20.501Z,32.55
2019-02-21T00:03:50.636Z,31.10
2019-02-21T00:06:20.010Z,27.70
2019-02-21T00:08:49.455Z,33.50
2019-02-21T00:11:19.302Z,33.55
2019-02-21T00:13:48.722Z,33.67
2019-02-21T00:16:18.223Z,34.38
2019-02-21T00:18:47.968Z,32.42
2019-02-21T00:21:17.538Z,35.25
2019-02-21T00:23:47.057Z,32.58
2019-02-21T00:26:16.462Z,35.75
2019-02-21T00:28:45.891Z,33.08
2019-02-21T00:31:17.110Z,33.90
2019-02-21T00:33:46.816Z,32.08
2019-02-21T00:36:16.329Z,31.80
2019-02-21T00:38:45.664Z,30.43
2019-02-21T00:41:17.000Z,32.65
2019-02-21T00:43:46.367Z,31.50
2019-02-21T00:46:17.753Z,31.95
2019-02-21T00:48:47.324Z,31.42
2019-02-21T00:51:18.124Z,30.50
2019-02-21T00:53:51.742Z,30.75
2019-02-21T00:56:21.118Z,30.10
2019-02-21T00:58:52.281Z,36.10
2019-02-21T01:01:22.319Z,29.67
2019-02-21T01:03:51.760Z,34.90
2019-02-21T01:06:21.400Z,35.98
2019-02-21T01:08:50.786Z,34.40
2019-02-21T01:11:20.251Z,35.43
2019-02-21T01:13:49.657Z,35.43
2019-02-21T01:16:19.556Z,39.60
2019-02-21T01:18:48.974Z,38.42
2019-02-21T01:21:18.693Z,40.45
2019-02-21T01:23:54.950Z,38.02
2019-02-21T01:26:24.476Z,36.80
2019-02-21T01:28:53.855Z,31.85
2019-02-21T01:31:23.597Z,34.40
2019-02-21T01:33:57.546Z,36.17
2019-02-21T01:36:28.679Z,34.48
2019-02-21T01:38:58.158Z,33.10
2019-02-21T01:41:30.938Z,35.00
2019-02-21T01:44:00.549Z,34.30
2019-02-21T01:46:31.486Z,31.77
2019-02-21T01:49:01.408Z,31.90
2019-02-21T01:51:34.864Z,31.10
2019-02-21T01:54:07.438Z,32.42
2019-02-21T01:56:39.796Z,32.03
2019-02-21T01:59:09.348Z,31.12
2019-02-21T02:01:39.059Z,31.90
2019-02-21T02:04:14.527Z,31.80
2019-02-21T02:06:43.919Z,32.70
2019-02-21T02:09:16.401Z,30.48
2019-02-21T02:11:47.715Z,28.67
2019-02-21T02:14:22.608Z,28.10
2019-02-21T02:16:54.836Z,32.78
2019-02-21T02:19:44.948Z,31.25
2019-02-21T02:22:14.365Z,31.30
2019-02-21T02:24:46.641Z,29.42
2019-02-21T02:27:18.959Z,31.23
2019-02-21T02:29:48.325Z,33.55
2019-02-21T02:32:18.003Z,29.32
2019-02-21T02:34:49.013Z,29.35
2019-02-21T02:37:18.437Z,34.23
2019-02-21T02:39:52.529Z,27.62
2019-02-21T02:42:21.893Z,31.10
2019-02-21T02:44:51.403Z,27.73
2019-02-21T02:47:21.040Z,29.18
2019-02-21T02:49:53.622Z,30.95
2019-02-21T02:52:24.204Z,35.80
2019-02-21T02:54:53.759Z,31.57
2019-02-21T02:57:23.145Z,27.62
2019-02-21T03:00:13.042Z,32.15
2019-02-21T03:02:42.620Z,30.60
2019-02-21T03:05:12.141Z,32.60
2019-02-21T03:07:43.841Z,30.23
2019-02-21T03:10:14.467Z,32.55
2019-02-21T03:12:48.868Z,31.62
2019-02-21T03:15:18.479Z,29.67
2019-02-21T03:17:47.880Z,34.48
2019-02-21T03:20:17.283Z,34.70
2019-02-21T03:22:46.681Z,38.48
2019-02-21T03:25:16.192Z,44.40
2019-02-21T03:27:46.024Z,42.13
2019-02-21T03:30:15.440Z,37.28
2019-02-21T03:32:45.297Z,32.45
2019-02-21T03:35:14.746Z,37.70
2019-02-21T03:37:46.245Z,32.50
2019-02-21T03:40:15.982Z,30.32
2019-02-21T03:42:45.407Z,33.20
2019-02-21T03:45:15.355Z,32.55
2019-02-21T03:47:44.760Z,29.55
2019-02-21T03:50:14.598Z,33.33
2019-02-21T03:52:44.018Z,30.85
2019-02-21T03:55:13.483Z,32.83
2019-02-21T03:57:43.057Z,32.40
2019-02-21T04:00:12.503Z,38.05
2019-02-21T04:02:42.001Z,70.40
2019-02-21T04:05:11.394Z,48.02
2019-02-21T04:07:41.160Z,135.93
2019-02-21T04:10:10.502Z,73.10
2019-02-21T04:12:40.273Z,43.28
2019-02-21T04:15:11.279Z,44.75
2019-02-21T04:17:40.997Z,83.03
2019-02-21T04:20:10.346Z,108.45
2019-02-21T04:22:39.823Z,73.15
2019-02-21T04:25:09.260Z,59.15
2019-02-21T04:27:38.863Z,55.28
2019-02-21T04:30:08.333Z,37.38
2019-02-21T04:32:37.949Z,31.62
2019-02-21T04:35:07.453Z,32.25
2019-02-21T04:37:37.061Z,29.67
2019-02-21T04:40:07.139Z,29.48
2019-02-21T04:42:36.528Z,30.30
2019-02-21T04:45:06.577Z,32.03
2019-02-21T04:47:35.949Z,37.30
2019-02-21T04:50:05.805Z,32.33
2019-02-21T04:52:35.255Z,29.45
2019-02-21T04:55:04.627Z,40.05
2019-02-21T04:57:34.481Z,99.05
2019-02-21T05:00:04.219Z,74.87
2019-02-21T05:02:33.981Z,51.42
2019-02-21T05:05:03.449Z,91.42
2019-02-21T05:07:33.322Z,72.70
2019-02-21T05:10:02.741Z,62.85
2019-02-21T05:12:32.121Z,76.35
2019-02-21T05:15:02.109Z,92.60
2019-02-21T05:17:31.845Z,167.00
2019-02-21T05:20:01.410Z,199.77
2019-02-21T05:22:31.047Z,226.95
2019-02-21T05:25:01.538Z,165.68
2019-02-21T05:27:34.586Z,149.95
2019-02-21T05:30:05.329Z,152.62
2019-02-21T05:32:42.216Z,190.55
2019-02-21T05:35:17.232Z,80.85
2019-02-21T05:38:23.624Z,51.60
2019-02-21T05:41:14.788Z,107.20
2019-02-21T05:44:09.356Z,99.22
2019-02-21T05:47:00.614Z,108.92
2019-02-21T05:49:46.942Z,47.65
2019-02-21T05:52:37.267Z,82.25
2019-02-21T05:55:12.642Z,55.45
2019-02-21T05:58:08.586Z,90.95
2019-02-21T06:00:49.361Z,81.28
2019-02-21T06:03:46.864Z,60.10
2019-02-21T06:06:53.504Z,50.03
2019-02-21T06:09:35.917Z,30.08
2019-02-21T06:12:14.656Z,31.48
2019-02-21T06:14:50.069Z,58.38
2019-02-21T06:17:34.748Z,30.32
2019-02-21T06:20:22.423Z,37.23
2019-02-21T06:23:19.995Z,39.70
2019-02-21T06:25:59.343Z,30.70
2019-02-21T06:28:36.353Z,30.48
2019-02-21T06:31:09.505Z,34.90
2019-02-21T06:33:39.179Z,31.33
2019-02-21T06:36:08.613Z,30.97
2019-02-21T06:38:39.087Z,27.27
2019-02-21T06:41:08.755Z,31.33
2019-02-21T06:43:38.343Z,31.60
2019-02-21T06:46:07.953Z,28.57
2019-02-21T06:48:37.617Z,28.23
2019-02-21T06:51:07.848Z,30.23
2019-02-21T06:53:38.984Z,51.30
2019-02-21T06:56:08.572Z,47.40
2019-02-21T06:58:38.120Z,35.63
2019-02-21T07:01:07.583Z,31.23
2019-02-21T07:03:37.076Z,31.57
2019-02-21T07:06:06.839Z,27.77
2019-02-21T07:08:36.370Z,28.05
2019-02-21T07:11:06.682Z,29.75
2019-02-21T07:13:36.634Z,25.97
2019-02-21T07:16:06.142Z,25.90
2019-02-21T07:18:35.646Z,24.92
2019-02-21T07:21:05.305Z,24.75
2019-02-21T07:23:43.110Z,29.45
2019-02-21T07:26:14.868Z,28.57
2019-02-21T07:28:44.460Z,30.17
2019-02-21T07:31:14.006Z,36.23
2019-02-21T07:33:43.410Z,32.98
2019-02-21T07:36:13.127Z,36.25
2019-02-21T07:38:42.588Z,30.35
2019-02-21T07:41:12.092Z,34.20
2019-02-21T07:43:41.503Z,31.33
2019-02-21T07:46:11.307Z,30.00
2019-02-21T07:48:40.778Z,29.65
2019-02-21T07:51:10.170Z,32.60
2019-02-21T07:53:39.720Z,26.70
2019-02-21T07:56:09.451Z,23.57
2019-02-21T07:58:39.692Z,23.65
2019-02-21T08:01:09.410Z,22.55
2019-02-21T08:03:44.306Z,22.07
2019-02-21T08:06:10.862Z,21.68
2019-02-21T08:08:40.373Z,23.65
2019-02-21T08:11:10.232Z,23.07
2019-02-21T08:13:42.749Z,28.32
2019-02-21T08:16:12.686Z,28.12
2019-02-21T08:18:42.118Z,30.68
2019-02-21T08:21:14.865Z,35.28
2019-02-21T08:23:50.471Z,30.80
2019-02-21T08:26:15.734Z,28.70
2019-02-21T08:28:45.337Z,32.80
2019-02-21T08:31:14.838Z,27.93
2019-02-21T08:33:58.720Z,27.15
2019-02-21T08:36:27.036Z,27.67
2019-02-21T08:38:56.401Z,26.02
2019-02-21T08:41:25.970Z,22.77
2019-02-21T08:43:57.437Z,23.73
2019-02-21T08:46:26.865Z,25.57
2019-02-21T08:48:56.844Z,24.32
2019-02-21T08:51:26.287Z,24.40
2019-02-21T08:53:55.707Z,24.72
2019-02-21T08:56:25.365Z,22.45
2019-02-21T08:58:54.787Z,23.02
2019-02-21T09:01:24.353Z,21.27
2019-02-21T09:04:09.897Z,22.52
2019-02-21T09:06:30.925Z,29.40
2019-02-21T09:09:00.381Z,20.80
2019-02-21T09:11:29.929Z,30.10
2019-02-21T09:14:03.013Z,22.17
2019-02-21T09:16:32.332Z,24.37
2019-02-21T09:19:01.709Z,27.98
2019-02-21T09:21:31.407Z,29.65
2019-02-21T09:24:00.845Z,29.82
2019-02-21T09:26:30.459Z,27.07
2019-02-21T09:28:59.990Z,26.68
2019-02-21T09:31:29.342Z,25.45
2019-02-21T09:33:58.796Z,33.05
2019-02-21T09:36:28.258Z,30.00
2019-02-21T09:38:57.775Z,28.10
2019-02-21T09:41:28.718Z,24.95
2019-02-21T09:43:58.334Z,29.65
2019-02-21T09:46:27.766Z,29.40
2019-02-21T09:48:57.262Z,31.82
2019-02-21T09:51:27.206Z,31.80
2019-02-21T09:53:56.893Z,35.83
2019-02-21T09:56:30.668Z,35.98
2019-02-21T09:58:58.693Z,37.08
2019-02-21T10:01:28.099Z,35.08
2019-02-21T10:03:57.768Z,40.23
2019-02-21T10:06:27.241Z,34.67
2019-02-21T10:08:56.691Z,48.80
2019-02-21T10:11:26.107Z,47.95
2019-02-21T10:13:55.627Z,46.30
2019-02-21T10:16:27.172Z,42.70
2019-02-21T10:18:57.418Z,38.53
2019-02-21T10:21:27.098Z,36.65
2019-02-21T10:23:56.851Z,42.50
2019-02-21T10:26:26.627Z,42.73
2019-02-21T10:28:56.085Z,40.43
2019-02-21T10:31:25.495Z,41.05
2019-02-21T10:33:54.821Z,44.80
2019-02-21T10:36:24.570Z,43.45
2019-02-21T10:38:53.958Z,40.65
2019-02-21T10:41:23.329Z,42.83
2019-02-21T10:43:52.979Z,36.15
2019-02-21T10:46:22.665Z,26.15
2019-02-21T10:48:52.070Z,27.42
2019-02-21T10:51:21.434Z,32.60
2019-02-21T10:53:51.143Z,26.85
2019-02-21T10:56:20.557Z,27.10
2019-02-21T10:58:49.914Z,26.45
2019-02-21T11:01:19.289Z,23.15
2019-02-21T11:03:48.736Z,28.92
2019-02-21T11:06:20.084Z,28.02
2019-02-21T11:08:49.687Z,33.88
2019-02-21T11:11:21.269Z,35.40
2019-02-21T11:13:51.857Z,35.33
2019-02-21T11:16:21.385Z,38.90
2019-02-21T11:18:51.038Z,36.03
2019-02-21T11:21:20.664Z,34.18
2019-02-21T11:23:50.045Z,30.95
2019-02-21T11:26:22.391Z,36.85
2019-02-21T11:28:51.997Z,34.67
2019-02-21T11:31:21.604Z,33.15
2019-02-21T11:33:51.142Z,33.05
2019-02-21T11:36:20.878Z,32.65
2019-02-21T11:38:50.547Z,32.48
2019-02-21T11:41:21.737Z,27.60
2019-02-21T11:43:51.184Z,30.97
2019-02-21T11:46:20.550Z,36.80
2019-02-21T11:48:50.000Z,38.50
2019-02-21T11:51:22.939Z,35.28
2019-02-21T11:53:52.585Z,38.33
2019-02-21T11:56:21.991Z,35.55
2019-02-21T11:58:51.384Z,37.88
2019-02-21T12:01:20.980Z,35.75
2019-02-21T12:03:50.724Z,33.13
2019-02-21T12:06:20.205Z,31.55
2019-02-21T12:08:49.636Z,35.75
2019-02-21T12:11:19.294Z,35.48
2019-02-21T12:13:48.860Z,34.15
2019-02-21T12:16:18.243Z,35.45
2019-02-21T12:18:48.201Z,37.65
2019-02-21T12:21:17.618Z,33.02
2019-02-21T12:23:47.612Z,35.10
2019-02-21T12:26:16.981Z,32.13
2019-02-21T12:28:46.869Z,35.60
2019-02-21T12:31:16.268Z,37.50
2019-02-21T12:33:45.640Z,31.10
2019-02-21T12:36:15.441Z,33.98
2019-02-21T12:38:45.012Z,31.27
2019-02-21T12:41:14.973Z,30.72
2019-02-21T12:43:44.320Z,33.28
2019-02-21T12:46:13.887Z,29.90
2019-02-21T12:48:43.422Z,33.30
2019-02-21T12:51:12.851Z,30.55
2019-02-21T12:53:42.197Z,29.95
2019-02-21T12:56:11.577Z,34.18
2019-02-21T12:58:41.253Z,32.38
2019-02-21T13:01:10.835Z,37.83
2019-02-21T13:03:40.806Z,35.17
2019-02-21T13:06:10.197Z,38.15
2019-02-21T13:08:39.560Z,35.70
2019-02-21T13:11:09.311Z,36.75
2019-02-21T13:13:39.124Z,32.93
2019-02-21T13:16:10.718Z,36.45
2019-02-21T13:18:40.221Z,35.38
2019-02-21T13:21:09.701Z,33.63
2019-02-21T13:23:43.444Z,39.75
2019-02-21T13:26:12.892Z,31.52
2019-02-21T13:28:42.413Z,32.10
2019-02-21T13:31:14.370Z,34.55
2019-02-21T13:33:43.839Z,32.83
2019-02-21T13:36:13.589Z,36.95
2019-02-21T13:38:43.009Z,31.82
2019-02-21T13:41:12.422Z,31.30
2019-02-21T13:43:42.013Z,31.90
2019-02-21T13:46:11.393Z,29.85
2019-02-21T13:48:41.278Z,33.95
2019-02-21T13:51:10.797Z,32.80
2019-02-21T13:53:40.381Z,32.63
2019-02-21T13:56:11.176Z,36.90
2019-02-21T13:58:40.911Z,36.13
2019-02-21T14:01:10.339Z,32.35
2019-02-21T14:03:39.889Z,28.47
2019-02-21T14:06:09.302Z,29.90
2019-02-21T14:08:38.887Z,32.98
2019-02-21T14:11:08.277Z,32.08
2019-02-21T14:13:37.643Z,31.97
2019-02-21T14:16:07.079Z,33.85
2019-02-21T14:18:36.984Z,30.80
2019-02-21T14:21:06.737Z,31.23
2019-02-21T14:23:36.523Z,33.40
2019-02-21T14:26:07.946Z,30.35
2019-02-21T14:28:37.592Z,32.75
2019-02-21T14:31:07.541Z,27.93
2019-02-21T14:33:37.254Z,29.75
2019-02-21T14:36:15.239Z,28.25
2019-02-21T14:38:38.029Z,28.15
2019-02-21T14:41:07.817Z,29.05
2019-02-21T14:43:37.208Z,24.43
2019-02-21T14:46:07.015Z,26.37
2019-02-21T14:48:36.609Z,26.48
2019-02-21T14:51:06.162Z,24.02
2019-02-21T14:53:35.773Z,25.10
2019-02-21T14:56:08.813Z,27.40
2019-02-21T14:58:38.403Z,25.90
2019-02-21T15:01:08.468Z,27.13
2019-02-21T15:03:38.521Z,25.17
2019-02-21T15:06:08.114Z,28.10
2019-02-21T15:08:37.896Z,28.52
2019-02-21T15:11:07.524Z,23.55
2019-02-21T15:13:37.187Z,26.80
2019-02-21T15:16:06.677Z,25.17
2019-02-21T15:18:36.046Z,26.02
2019-02-21T15:21:06.018Z,21.75
2019-02-21T15:23:37.092Z,22.17
2019-02-21T15:26:06.464Z,20.92
2019-02-21T15:28:36.018Z,23.20
2019-02-21T15:31:06.030Z,22.73
2019-02-21T15:33:35.641Z,18.25
2019-02-21T15:36:05.503Z,23.55
2019-02-21T15:38:39.974Z,17.35
2019-02-21T15:41:09.526Z,19.37
2019-02-21T15:43:39.222Z,20.15
2019-02-21T15:46:09.015Z,21.02
2019-02-21T15:48:38.957Z,18.40
2019-02-21T15:51:08.804Z,16.45
2019-02-21T15:53:38.753Z,19.65
2019-02-21T15:56:08.543Z,17.95
2019-02-21T15:58:38.070Z,17.75
2019-02-21T16:01:07.810Z,18.55
2019-02-21T16:03:37.459Z,20.37
2019-02-21T16:06:09.040Z,30.65
2019-02-21T16:08:38.599Z,21.52
2019-02-21T16:11:08.036Z,20.85
2019-02-21T16:13:37.608Z,17.23
2019-02-21T16:16:07.303Z,19.90
2019-02-21T16:18:36.836Z,20.90
2019-02-21T16:21:06.869Z,20.37
2019-02-21T16:23:36.488Z,24.77
2019-02-21T16:26:05.861Z,23.55
2019-02-21T16:28:35.486Z,24.63
2019-02-21T16:31:05.492Z,20.92
2019-02-21T16:33:35.053Z,20.62
2019-02-21T16:36:04.873Z,21.23
2019-02-21T16:38:34.649Z,22.55
2019-02-21T16:41:04.248Z,24.02
2019-02-21T16:43:33.977Z,21.30
2019-02-21T16:46:07.878Z,19.02
2019-02-21T16:48:35.643Z,22.27
2019-02-21T16:51:06.535Z,25.25
2019-02-21T16:53:36.175Z,24.90
2019-02-21T16:56:05.972Z,24.50
2019-02-21T16:58:35.794Z,25.43
2019-02-21T17:01:05.786Z,20.92
2019-02-21T17:03:35.395Z,22.75
2019-02-21T17:06:05.453Z,21.25
2019-02-21T17:08:35.547Z,25.05
2019-02-21T17:11:05.386Z,25.92
2019-02-21T17:13:35.507Z,23.40
2019-02-21T17:16:05.360Z,22.37
2019-02-21T17:18:35.409Z,22.17
2019-02-21T17:21:05.100Z,20.97
2019-02-21T17:23:35.076Z,20.90
2019-02-21T17:26:04.540Z,23.62
2019-02-21T17:28:34.706Z,19.12
2019-02-21T17:31:07.534Z,20.65
2019-02-21T17:33:37.180Z,20.60
2019-02-21T17:36:06.853Z,24.12
2019-02-21T17:38:36.494Z,22.25
2019-02-21T17:41:06.410Z,20.05
2019-02-21T17:43:36.473Z,21.57
2019-02-21T17:46:06.276Z,21.93
2019-02-21T17:48:36.183Z,23.40
2019-02-21T17:51:06.381Z,22.37
2019-02-21T17:53:36.189Z,18.95
2019-02-21T17:56:06.106Z,19.98
2019-02-21T17:58:36.050Z,21.90
2019-02-21T18:01:06.470Z,24.82
2019-02-21T18:03:36.665Z,26.97
2019-02-21T18:06:07.130Z,23.42
2019-02-21T18:08:38.462Z,26.37
2019-02-21T18:11:12.447Z,24.35
2019-02-21T18:13:42.005Z,23.35
2019-02-21T18:16:12.703Z,23.42
2019-02-21T18:18:43.128Z,25.02
2019-02-21T18:21:13.791Z,23.38
2019-02-21T18:23:44.007Z,21.73
2019-02-21T18:26:18.002Z,18.77
2019-02-21T18:28:48.755Z,23.70
2019-02-21T18:31:19.472Z,28.55
2019-02-21T18:33:49.918Z,22.22
2019-02-21T18:36:20.340Z,21.85
2019-02-21T18:38:50.995Z,24.87
2019-02-21T18:41:21.537Z,24.02
2019-02-21T18:43:52.189Z,25.00
2019-02-21T22:49:54.915Z,22.82
2019-02-21T22:52:24.339Z,25.37
2019-02-21T22:54:54.370Z,22.73
2019-02-21T22:57:23.902Z,26.87
2019-02-21T22:59:53.512Z,23.80
2019-02-21T23:04:07.185Z,24.60
2019-02-21T23:11:54.397Z,20.80
2019-02-21T23:14:24.433Z,24.70
2019-02-21T23:16:54.428Z,23.10
2019-02-21T23:19:58.173Z,22.37
2019-02-21T23:22:28.797Z,20.90
2019-02-21T23:25:15.032Z,24.18
2019-02-21T23:29:19.061Z,25.62
2019-02-21T23:31:48.791Z,24.37
2019-02-21T23:42:44.153Z,13.45
